Plainfield, NJ (07061)

6:42 PM EDT on September 20, 2014 (GMT -0400)
Plainfield, NJ 07060 | Change Station
CLOSE
Current Station
Personal Weather Station
Location: Plainfield, NJ
Elevation: 95 ft
Nearby Weather Stations

Elev 95 ft 40.61 °N, 74.40 °W | Updated 0 second ago

Mostly Cloudy
Mostly Cloudy
72.9 °F
Feels Like 77 °F
N
0.0
Wind Variable Wind from NE
Gusts 0.0 mph

Today
High -- | Low -- °F
--% Chance of Precip.
Yesterday
High -- | Low -- °F
Precip. -- in
6:43 AM 6:58 PM
Waning Crescent, 10% visible
Pressure 30.14 in
Visibility 10.0 miles
Clouds Clear
Heat Index 77 °F
Dew Point 57 °F
Humidity 58%
Rainfall 0.00 in
Snow Depth Not available.
UV 0 out of 12
Pollen 2.60 out of 12
Air Quality Not available.
Flu Activity Not available.
METAR KLDJ 202235Z AUTO 17007KT 10SM CLR 25/14 A3014 RMK AO2 T02500135

More Conditions Fewer Conditions

Pressure 30.14 in
Visibility 10.0 miles
Clouds Clear
Heat Index 77 °F
Dew Point 57 °F
Humidity 58%
Rainfall 0.00 in
Snow Depth Not available.
UV 0 out of 12
Pollen 2.60 out of 12
Air Quality Not available.
Flu Activity Not available.
METAR KLDJ 202235Z AUTO 17007KT 10SM CLR 25/14 A3014 RMK AO2 T02500135

More Conditions Fewer Conditions

10-Day Weather Forecast

Almanac

Astronomy

Sep. 20, 2014 Rise Set
Actual Time 6:43 AM EDT 6:58 PM EDT
Civil Twilight 6:15 AM EDT 7:25 PM EDT
Nautical Twilight 5:43 AM EDT 7:57 PM EDT
Astronomical Twilight 5:11 AM EDT 8:30 PM EDT
Moon 3:19 AM EDT 5:00 PM EDT
Length of Visible Light 13h 09m
Length of Day
12h 15m
Tomorrow will be 2m 40s shorter.
Waning Crescent, 10% of the Moon is Illuminated
Today
Waning Crescent
Sep 24
New
Oct 1
First Quarter
Oct 8
Full
Oct 15
Last Quarter

Today's Extremes

State Highs State Lows

Community

WunderPhotos

Upload Photos

1,754,970 photos uploaded!

WunderBlogs® & News

Nearby

Snow Depth

Station Depth Elevation
No new snow has been reported.

Earthquake Activity

City Distance Mag. Time & Date
No recent earthquake activity has been reported nearby.
Minimum magnitude displayed is 2.5.

Coastal Water Temperatures

Place Temperature
Sandy Hook, NJ 69.1 °F
The Battery, NY 71.1 °F
Bergen Point West Reach, NJ 70.0 °F
Kings Point, NY 68.0 °F

Nearby Weather Stations